createdAt,value
2022-09-17T00:00:13.967Z,98935.88
2022-09-17T00:02:46.351Z,98945.16
2022-09-17T00:05:16.829Z,98948.63
2022-09-17T00:07:47.115Z,98940.03
2022-09-17T00:10:17.415Z,98938.00
2022-09-17T00:12:47.701Z,98939.56
2022-09-17T00:15:20.722Z,98936.16
2022-09-17T00:17:50.916Z,98945.81
2022-09-17T00:20:21.979Z,98940.19
2022-09-17T00:22:52.083Z,98939.56
2022-09-17T00:25:25.188Z,98932.69
2022-09-17T00:27:55.264Z,98943.31
2022-09-17T00:30:28.197Z,98945.84
2022-09-17T00:32:58.601Z,98944.84
2022-09-17T00:35:29.122Z,98941.75
2022-09-17T00:37:59.315Z,98946.78
2022-09-17T00:40:29.561Z,98942.47
2022-09-17T00:42:59.854Z,98948.97
2022-09-17T00:45:33.305Z,98939.94
2022-09-17T00:48:05.597Z,98940.94
2022-09-17T00:50:39.738Z,98953.41
2022-09-17T00:53:13.771Z,98943.31
2022-09-17T00:55:48.791Z,98937.81
2022-09-17T00:58:24.607Z,98942.13
2022-09-17T01:00:57.750Z,98948.25
2022-09-17T01:03:27.997Z,98948.97
2022-09-17T01:06:08.790Z,98947.50
2022-09-17T01:08:52.292Z,98942.84
2022-09-17T01:11:38.897Z,98946.69
2022-09-17T01:14:22.277Z,98933.13
2022-09-17T01:17:03.971Z,98925.16
2022-09-17T01:20:11.060Z,98911.09
2022-09-17T01:22:54.626Z,98898.75
2022-09-17T01:25:27.615Z,98887.47
2022-09-17T01:28:33.088Z,98888.28
2022-09-17T01:31:35.730Z,98887.81
2022-09-17T01:34:16.402Z,98892.31
2022-09-17T01:37:00.158Z,98897.44
2022-09-17T01:39:34.467Z,98904.59
2022-09-17T01:42:17.639Z,98909.09
2022-09-17T01:44:56.336Z,98905.41
2022-09-17T01:47:33.893Z,98905.59
2022-09-17T01:50:07.427Z,98905.78
2022-09-17T01:52:40.649Z,98903.13
2022-09-17T01:55:15.544Z,98904.78
2022-09-17T01:57:51.374Z,98899.63
2022-09-17T02:00:22.361Z,98897.81
2022-09-17T02:03:00.130Z,98898.44
2022-09-17T02:05:35.469Z,98899.63
2022-09-17T02:08:09.870Z,98886.34
2022-09-17T02:10:45.078Z,98875.72
2022-09-17T02:13:19.792Z,98875.72
2022-09-17T02:15:54.659Z,98843.78
2022-09-17T02:18:32.916Z,98878.19
2022-09-17T02:21:09.752Z,98879.38
2022-09-17T02:23:46.051Z,98872.88
2022-09-17T02:26:23.107Z,98873.69
2022-09-17T02:28:56.973Z,98867.38
2022-09-17T02:31:26.935Z,98871.03
2022-09-17T02:34:04.695Z,98874.06
2022-09-17T02:36:35.360Z,98867.91
2022-09-17T02:39:07.225Z,98877.72
2022-09-17T02:41:48.389Z,98878.91
2022-09-17T02:44:29.260Z,98873.59
2022-09-17T02:47:22.132Z,98876.25
2022-09-17T02:50:18.253Z,98864.97
2022-09-17T02:53:08.604Z,98861.84
2022-09-17T02:55:44.566Z,98854.69
2022-09-17T02:58:24.357Z,98852.03
2022-09-17T03:00:58.420Z,98860.00
2022-09-17T03:03:35.654Z,98841.41
2022-09-17T03:06:09.037Z,98838.75
2022-09-17T03:08:42.260Z,98828.84
2022-09-17T03:11:15.215Z,98835.66
2022-09-17T03:13:45.350Z,98836.28
2022-09-17T03:16:15.600Z,98835.47
2022-09-17T03:18:45.957Z,98839.75
2022-09-17T03:21:19.034Z,98836.47
2022-09-17T03:23:49.747Z,98835.78
2022-09-17T03:26:19.885Z,98834.03
2022-09-17T03:28:50.149Z,98817.25
2022-09-17T03:31:20.321Z,98814.44
2022-09-17T03:33:50.545Z,98809.38
2022-09-17T03:36:23.178Z,98805.88
2022-09-17T03:38:57.234Z,98808.19
2022-09-17T03:41:28.122Z,98800.69
2022-09-17T03:43:58.231Z,98794.00
2022-09-17T03:46:28.417Z,98794.34
2022-09-17T03:48:58.612Z,98796.19
2022-09-17T03:51:31.336Z,98800.50
2022-09-17T03:54:03.301Z,98800.22
2022-09-17T03:56:33.430Z,98806.25
2022-09-17T03:59:04.417Z,98800.75
2022-09-17T04:01:34.764Z,98806.06
2022-09-17T04:04:05.612Z,98816.44
2022-09-17T04:06:38.446Z,98803.59
2022-09-17T04:09:09.099Z,98777.75
2022-09-17T04:11:39.411Z,98784.91
2022-09-17T04:14:09.630Z,98790.13
2022-09-17T04:16:39.787Z,98770.22
2022-09-17T04:19:10.106Z,98773.81
2022-09-17T04:21:42.906Z,98779.31
2022-09-17T04:24:13.261Z,98768.97
2022-09-17T04:26:43.368Z,98777.22
2022-09-17T04:29:13.599Z,98775.75
2022-09-17T04:31:44.270Z,98765.13
2022-09-17T04:34:14.459Z,98764.94
2022-09-17T04:36:47.193Z,98764.66
2022-09-17T04:39:17.524Z,98757.16
2022-09-17T04:41:48.148Z,98763.28
2022-09-17T04:44:18.254Z,98769.25
2022-09-17T04:46:48.528Z,98776.28
2022-09-17T04:49:19.493Z,98784.38
2022-09-17T04:51:52.240Z,98784.91
2022-09-17T04:54:22.769Z,98782.31
2022-09-17T04:56:53.170Z,98791.88
2022-09-17T04:59:23.357Z,98797.00
2022-09-17T05:01:53.552Z,98786.19
2022-09-17T05:04:23.902Z,98793.31
2022-09-17T05:06:56.713Z,98807.88
2022-09-17T05:09:27.201Z,98793.59
2022-09-17T05:11:57.443Z,98795.53
2022-09-17T05:14:27.552Z,98795.28
2022-09-17T05:16:57.649Z,98790.41
2022-09-17T05:19:28.143Z,98800.09
2022-09-17T05:22:00.949Z,98796.47
2022-09-17T05:24:31.115Z,98793.56
2022-09-17T05:27:01.296Z,98789.50
2022-09-17T05:29:31.477Z,98792.44
2022-09-17T05:32:01.547Z,98791.44
2022-09-17T05:34:31.698Z,98792.00
2022-09-17T05:37:04.454Z,98804.00
2022-09-17T05:39:34.840Z,98807.03
2022-09-17T05:42:05.018Z,98798.59
2022-09-17T05:44:35.153Z,98808.56
2022-09-17T05:47:05.303Z,98818.31
2022-09-17T05:49:35.484Z,98817.84
2022-09-17T05:52:08.687Z,98824.63
2022-09-17T05:54:38.824Z,98830.50
2022-09-17T05:57:09.252Z,98817.78
2022-09-17T05:59:39.662Z,98815.53
2022-09-17T06:02:13.343Z,98810.78
2022-09-17T06:04:43.679Z,98815.19
2022-09-17T06:07:16.406Z,98824.25
2022-09-17T06:09:47.623Z,98808.53
2022-09-17T06:12:18.104Z,98815.69
2022-09-17T06:14:48.198Z,98814.63
2022-09-17T06:17:22.089Z,98813.63
2022-09-17T06:19:52.679Z,98818.31
2022-09-17T06:22:25.464Z,98811.44
2022-09-17T06:24:55.604Z,98809.22
2022-09-17T06:27:25.698Z,98822.44
2022-09-17T06:29:56.763Z,98830.25
2022-09-17T06:32:27.011Z,98829.34
2022-09-17T06:34:57.499Z,98843.78
2022-09-17T06:37:36.454Z,98841.50
2022-09-17T06:40:06.933Z,98839.97
2022-09-17T06:42:37.761Z,98851.78
2022-09-17T06:45:12.199Z,98845.94
2022-09-17T06:47:46.164Z,98847.88
2022-09-17T06:50:17.425Z,98848.97
2022-09-17T06:52:54.728Z,98846.78
2022-09-17T06:55:25.092Z,98848.03
2022-09-17T06:57:55.325Z,98846.38
2022-09-17T07:00:27.146Z,98830.25
2022-09-17T07:03:00.871Z,98833.00
2022-09-17T07:05:33.391Z,98836.78
2022-09-17T07:08:07.153Z,98823.75
2022-09-17T07:10:37.175Z,98833.69
2022-09-17T07:13:07.373Z,98837.63
2022-09-17T07:15:37.745Z,98824.69
2022-09-17T07:18:11.463Z,98821.28
2022-09-17T07:20:41.777Z,98819.47
2022-09-17T07:23:14.478Z,98816.84
2022-09-17T07:25:46.820Z,98812.25
2022-09-17T07:28:17.153Z,98810.88
2022-09-17T07:30:47.597Z,98791.94
2022-09-17T07:33:19.171Z,98803.44
2022-09-17T07:35:56.505Z,98809.41
2022-09-17T07:38:30.091Z,98817.44
2022-09-17T07:41:01.448Z,98819.53
2022-09-17T07:43:33.418Z,98813.94
2022-09-17T07:46:04.981Z,98820.22
2022-09-17T07:48:37.631Z,98822.09
2022-09-17T07:51:08.140Z,98832.63
2022-09-17T07:53:41.230Z,98841.25
2022-09-17T07:56:12.065Z,98845.00
2022-09-17T07:58:42.670Z,98844.41
2022-09-17T08:01:15.505Z,98838.22
2022-09-17T08:03:46.860Z,98842.50
2022-09-17T08:06:18.133Z,98836.53
2022-09-17T08:08:51.572Z,98832.34
2022-09-17T08:11:44.718Z,98828.84
2022-09-17T08:14:14.350Z,98823.09
2022-09-17T08:16:45.788Z,98824.88
2022-09-17T08:19:15.955Z,98816.66
2022-09-17T08:21:46.130Z,98824.34
2022-09-17T08:24:18.803Z,98814.31
2022-09-17T08:26:49.047Z,98813.84
2022-09-17T08:29:19.247Z,98804.88
2022-09-17T08:31:49.731Z,98814.78
2022-09-17T08:34:20.029Z,98823.00
2022-09-17T08:36:50.180Z,98817.66
2022-09-17T08:39:22.890Z,98825.50
2022-09-17T08:42:05.989Z,98823.22
2022-09-17T08:44:43.627Z,98818.09
2022-09-17T08:47:19.235Z,98821.56
2022-09-17T08:49:55.241Z,98815.59
2022-09-17T08:52:51.271Z,98811.91
2022-09-17T08:55:38.619Z,98797.06
2022-09-17T08:58:30.990Z,98810.03
2022-09-17T09:01:11.553Z,98820.34
2022-09-17T09:03:54.407Z,98830.19
2022-09-17T09:06:30.656Z,98836.16
2022-09-17T09:09:06.317Z,98847.50
2022-09-17T09:11:40.438Z,98840.28
2022-09-17T09:14:18.249Z,98834.72
2022-09-17T09:16:49.813Z,98838.03
2022-09-17T09:19:27.034Z,98838.84
2022-09-17T09:22:06.130Z,98843.00
2022-09-17T09:24:44.131Z,98830.63
2022-09-17T09:27:22.145Z,98825.25
2022-09-17T09:30:04.950Z,98828.16
2022-09-17T09:32:46.725Z,98820.56
2022-09-17T09:35:21.255Z,98820.94
2022-09-17T09:38:00.597Z,98817.56
2022-09-17T09:40:39.224Z,98823.88
2022-09-17T09:43:20.546Z,98819.72
2022-09-17T09:46:18.590Z,98825.34
2022-09-17T09:49:00.879Z,98820.41
2022-09-17T09:51:42.199Z,98825.53
2022-09-17T09:54:31.504Z,98827.78
2022-09-17T09:57:07.606Z,98825.50
2022-09-17T09:59:41.549Z,98824.22
2022-09-17T10:02:12.996Z,98819.69
2022-09-17T10:04:43.446Z,98815.31
2022-09-17T10:07:14.553Z,98811.00
2022-09-17T10:09:49.524Z,98822.56
2022-09-17T10:12:21.803Z,98837.59
2022-09-17T10:14:56.357Z,98828.34
2022-09-17T10:17:29.065Z,98820.94
2022-09-17T10:20:23.127Z,98832.44
2022-09-17T10:22:53.862Z,98835.94
2022-09-17T10:25:45.406Z,98831.84
2022-09-17T10:28:39.029Z,98826.06
2022-09-17T10:31:17.269Z,98840.25
2022-09-17T10:34:01.391Z,98841.50
2022-09-17T10:36:42.127Z,98842.94
2022-09-17T10:39:38.780Z,98840.69
2022-09-17T10:42:16.897Z,98838.84
2022-09-17T10:44:55.385Z,98823.81
2022-09-17T10:47:31.629Z,98815.94
2022-09-17T10:50:04.960Z,98823.56
2022-09-17T10:52:37.768Z,98824.97
2022-09-17T10:55:20.349Z,98825.81
2022-09-17T10:58:05.050Z,98823.16
2022-09-17T11:00:45.897Z,98814.56
2022-09-17T11:03:54.813Z,98801.38
2022-09-17T11:06:52.226Z,98799.34
2022-09-17T11:09:33.320Z,98799.31
2022-09-17T11:12:26.678Z,98792.28
2022-09-17T11:15:04.594Z,98793.13
2022-09-17T11:17:50.293Z,98789.25
2022-09-17T11:20:36.375Z,98777.72
2022-09-17T11:23:26.077Z,98755.19
2022-09-17T11:26:00.787Z,98754.13
2022-09-17T11:28:51.573Z,98753.69
2022-09-17T11:31:34.051Z,98754.97
2022-09-17T11:34:28.168Z,98747.00
2022-09-17T11:37:07.966Z,98748.19
2022-09-17T11:39:47.094Z,98734.50
2022-09-17T11:42:23.135Z,98743.94
2022-09-17T11:44:58.061Z,98740.09
2022-09-17T11:47:35.694Z,98726.88
2022-09-17T11:50:19.853Z,98740.66
2022-09-17T11:53:06.008Z,98723.41
2022-09-17T11:55:42.930Z,98739.00
2022-09-17T11:58:18.557Z,98732.50
2022-09-17T12:00:55.950Z,98709.91
2022-09-17T12:03:35.213Z,98688.09
2022-09-17T12:06:13.163Z,98692.22
2022-09-17T12:08:54.717Z,98710.91
2022-09-17T12:11:31.345Z,98718.75
2022-09-17T12:14:07.508Z,98719.38
2022-09-17T12:16:43.827Z,98721.03
2022-09-17T12:19:20.140Z,98713.25
2022-09-17T12:21:54.642Z,98695.16
2022-09-17T12:24:29.819Z,98715.88
2022-09-17T12:27:15.232Z,98720.41
2022-09-17T12:30:09.745Z,98714.03
2022-09-17T12:32:56.918Z,98703.56
2022-09-17T12:36:10.840Z,98702.13
2022-09-17T12:39:23.559Z,98686.06
2022-09-17T12:42:04.820Z,98682.78
2022-09-17T12:44:50.219Z,98685.25
2022-09-17T12:47:49.334Z,98693.44
2022-09-17T12:50:27.483Z,98689.97
2022-09-17T12:53:14.843Z,98672.69
2022-09-17T12:55:57.140Z,98669.19
2022-09-17T12:58:45.840Z,98660.53
2022-09-17T13:01:20.997Z,98658.97
2022-09-17T13:03:56.751Z,98656.09
2022-09-17T13:07:01.308Z,98661.03
2022-09-17T13:09:47.495Z,98660.59
2022-09-17T13:12:25.950Z,98647.28
2022-09-17T13:15:31.356Z,98658.53
2022-09-17T13:18:23.806Z,98654.41
2022-09-17T13:21:06.504Z,98644.75
2022-09-17T13:23:44.534Z,98642.69
2022-09-17T13:26:19.332Z,98626.28
2022-09-17T13:28:51.678Z,98629.38
2022-09-17T13:31:51.115Z,98621.53
2022-09-17T13:34:36.155Z,98634.28
2022-09-17T13:37:07.600Z,98622.59
2022-09-17T13:39:50.868Z,98632.41
2022-09-17T13:42:28.174Z,98625.22
2022-09-17T13:45:11.258Z,98641.41
2022-09-17T13:47:53.777Z,98645.72
2022-09-17T13:50:30.330Z,98648.47
2022-09-17T13:53:02.600Z,98650.84
2022-09-17T13:55:38.306Z,98653.91
2022-09-17T13:58:12.881Z,98651.19
2022-09-17T14:00:55.717Z,98644.22
2022-09-17T14:03:54.448Z,98651.44
2022-09-17T14:06:54.375Z,98651.03
2022-09-17T14:09:53.087Z,98645.31
2022-09-17T14:12:58.367Z,98641.69
2022-09-17T14:15:54.386Z,98641.06
2022-09-17T14:18:45.648Z,98628.91
2022-09-17T14:21:28.677Z,98612.75
2022-09-17T14:24:01.180Z,98614.56
2022-09-17T14:26:51.695Z,98624.19
2022-09-17T14:29:36.992Z,98612.44
2022-09-17T14:32:09.921Z,98630.06
2022-09-17T14:34:40.681Z,98633.28
2022-09-17T14:37:19.064Z,98649.66
2022-09-17T14:39:52.042Z,98655.34
2022-09-17T14:42:27.237Z,98675.53
2022-09-17T14:45:02.077Z,98677.22
2022-09-17T14:47:32.431Z,98683.75
2022-09-17T14:50:23.340Z,98674.91
2022-09-17T14:52:57.104Z,98674.28
2022-09-17T14:55:29.774Z,98671.34
2022-09-17T14:58:02.682Z,98666.16
2022-09-17T15:00:37.986Z,98663.19
2022-09-17T15:03:08.615Z,98642.13
2022-09-17T15:05:42.484Z,98668.16
2022-09-17T15:08:21.394Z,98672.16
2022-09-17T15:10:54.802Z,98666.38
2022-09-17T15:13:29.783Z,98665.03
2022-09-17T15:16:05.128Z,98655.41
2022-09-17T15:18:45.078Z,98648.63
2022-09-17T15:21:29.351Z,98647.34
2022-09-17T15:24:08.092Z,98628.38
2022-09-17T15:26:43.078Z,98618.84
2022-09-17T15:29:15.113Z,98614.88
2022-09-17T15:31:45.498Z,98616.97
2022-09-17T15:34:15.878Z,98620.44
2022-09-17T15:37:07.039Z,98643.34
2022-09-17T15:39:46.854Z,98662.31
2022-09-17T15:42:22.867Z,98671.66
2022-09-17T15:44:53.739Z,98688.78
2022-09-17T15:47:56.081Z,98688.78
2022-09-17T15:50:28.935Z,98678.16
2022-09-17T15:53:15.686Z,98678.06
2022-09-17T15:56:01.266Z,98668.19
2022-09-17T15:58:33.319Z,98664.78
2022-09-17T16:01:42.396Z,98662.00
2022-09-17T16:04:22.100Z,98637.09
2022-09-17T16:06:56.907Z,98628.97
2022-09-17T16:09:47.021Z,98623.66
2022-09-17T16:12:23.735Z,98611.03
2022-09-17T16:14:55.729Z,98596.84
2022-09-17T16:17:29.534Z,98588.50
2022-09-17T16:20:06.147Z,98587.69
2022-09-17T16:22:36.975Z,98579.63
2022-09-17T16:25:08.187Z,98586.75
2022-09-17T16:27:48.116Z,98599.56
2022-09-17T16:30:21.738Z,98608.00
2022-09-17T16:32:52.169Z,98604.09
2022-09-17T16:35:25.966Z,98595.13
2022-09-17T16:37:57.432Z,98595.31
2022-09-17T16:40:31.355Z,98589.53
2022-09-17T16:43:06.640Z,98579.53
2022-09-17T16:45:36.710Z,98580.66
2022-09-17T16:48:07.715Z,98587.19
2022-09-17T16:50:39.048Z,98587.09
2022-09-17T16:53:09.627Z,98573.66
2022-09-17T16:55:39.847Z,98579.91
2022-09-17T16:58:13.010Z,98573.69
2022-09-17T17:00:46.683Z,98564.63
2022-09-17T17:03:17.963Z,98578.78
2022-09-17T17:05:48.299Z,98584.19
2022-09-17T17:08:19.306Z,98579.03
2022-09-17T17:10:52.556Z,98587.00
2022-09-17T17:13:25.740Z,98590.81
2022-09-17T17:15:58.568Z,98594.50
2022-09-17T17:18:28.833Z,98596.16
2022-09-17T17:20:59.138Z,98598.28
2022-09-17T17:23:29.394Z,98601.81
2022-09-17T17:25:59.500Z,98604.41
2022-09-17T17:28:35.181Z,98607.84
2022-09-17T17:31:05.901Z,98609.00
2022-09-17T17:33:36.605Z,98610.53
2022-09-17T17:36:08.700Z,98598.97
2022-09-17T17:38:39.375Z,98597.66
2022-09-17T17:41:11.759Z,98616.19
2022-09-17T17:43:44.785Z,98604.31
2022-09-17T17:46:15.910Z,98606.16
2022-09-17T17:48:46.684Z,98611.44
2022-09-17T17:51:18.700Z,98616.91
2022-09-17T17:53:49.333Z,98609.34
2022-09-17T17:56:20.746Z,98610.00
2022-09-17T17:58:57.890Z,98611.81
2022-09-17T18:01:30.217Z,98599.56
2022-09-17T18:04:03.712Z,98608.72
2022-09-17T18:06:34.269Z,98612.88
2022-09-17T18:09:05.893Z,98614.69
2022-09-17T18:11:37.560Z,98614.19
2022-09-17T18:14:10.396Z,98609.44
2022-09-17T18:16:40.745Z,98616.19
2022-09-17T18:19:13.152Z,98608.81
2022-09-17T18:21:43.406Z,98615.59
2022-09-17T18:24:13.586Z,98625.34
2022-09-17T18:26:43.805Z,98620.56
2022-09-17T18:29:16.681Z,98617.56
2022-09-17T18:31:47.536Z,98638.91
2022-09-17T18:34:19.374Z,98635.94
2022-09-17T18:36:51.296Z,98637.44
2022-09-17T18:42:12.311Z,98645.22
2022-09-17T18:44:45.141Z,98648.53
2022-09-17T18:47:17.830Z,98661.25
2022-09-17T18:49:48.295Z,98664.59
2022-09-17T18:52:18.471Z,98671.16
2022-09-17T18:54:48.703Z,98673.47
2022-09-17T18:57:18.931Z,98675.00
2022-09-17T18:59:52.193Z,98681.13
2022-09-17T19:02:22.402Z,98676.31
2022-09-17T19:04:53.047Z,98675.16
2022-09-17T19:07:23.221Z,98664.72
2022-09-17T19:09:53.470Z,98679.47
2022-09-17T19:12:23.659Z,98675.66
2022-09-17T19:14:57.144Z,98680.13
2022-09-17T19:17:27.290Z,98676.16
2022-09-17T19:19:57.661Z,98685.09
2022-09-17T19:22:28.118Z,98694.50
2022-09-17T19:24:58.376Z,98680.13
2022-09-17T19:27:28.910Z,98685.25
2022-09-17T19:30:01.724Z,98687.91
2022-09-17T19:32:33.881Z,98680.28
2022-09-17T19:35:04.242Z,98684.75
2022-09-17T19:37:34.536Z,98661.78
2022-09-17T19:40:05.940Z,98663.09
2022-09-17T19:42:36.334Z,98660.63
2022-09-17T19:45:10.284Z,98663.75
2022-09-17T19:47:40.531Z,98673.19
2022-09-17T19:50:12.318Z,98676.00
2022-09-17T19:52:46.034Z,98682.78
2022-09-17T19:55:16.268Z,98691.38
2022-09-17T19:57:46.569Z,98688.56
2022-09-17T20:00:21.398Z,98691.50
2022-09-17T20:02:53.108Z,98701.78
2022-09-17T20:05:23.341Z,98708.88
2022-09-17T20:07:53.498Z,98698.81
2022-09-17T20:10:23.634Z,98695.00
2022-09-17T20:12:53.702Z,98684.91
2022-09-17T20:15:29.408Z,98687.72
2022-09-17T20:17:59.525Z,98696.16
2022-09-17T20:20:29.749Z,98684.91
2022-09-17T20:22:59.922Z,98689.22
2022-09-17T20:25:30.004Z,98698.13
2022-09-17T20:28:00.132Z,98706.91
2022-09-17T20:30:33.221Z,98715.34
2022-09-17T20:33:03.333Z,98719.97
2022-09-17T20:35:33.489Z,98721.78
2022-09-17T20:39:09.528Z,98728.22
2022-09-17T20:40:53.916Z,98741.91
2022-09-17T20:43:24.061Z,98746.56
2022-09-17T20:46:00.133Z,98754.16
2022-09-17T20:48:30.397Z,98753.47
2022-09-17T20:51:01.931Z,98749.03
2022-09-17T20:53:33.598Z,98756.13
2022-09-17T20:56:06.358Z,98755.47
2022-09-17T20:58:39.301Z,98751.66
2022-09-17T21:01:15.092Z,98758.91
2022-09-17T21:03:45.760Z,98761.75
2022-09-17T21:06:20.274Z,98756.59
2022-09-17T21:08:51.789Z,98761.56
2022-09-17T21:11:25.620Z,98747.03
2022-09-17T21:13:56.281Z,98758.94
2022-09-17T21:16:29.300Z,98761.59
2022-09-17T21:19:01.659Z,98765.22
2022-09-17T21:21:34.512Z,98771.25
2022-09-17T21:24:05.512Z,98766.66
2022-09-17T21:26:36.435Z,98761.66
2022-09-17T21:29:06.781Z,98761.19
2022-09-17T21:31:40.468Z,98753.63
2022-09-17T21:34:14.035Z,98751.31
2022-09-17T21:36:48.231Z,98748.53
2022-09-17T21:39:20.405Z,98744.38
2022-09-17T21:41:50.922Z,98742.03
2022-09-17T21:44:21.072Z,98741.19
2022-09-17T21:46:57.700Z,98750.44
2022-09-17T21:49:28.155Z,98751.25
2022-09-17T21:51:58.234Z,98741.19
2022-09-17T21:54:28.382Z,98733.78
2022-09-17T21:57:00.145Z,98738.59
2022-09-17T21:59:30.267Z,98745.69
2022-09-17T22:02:03.100Z,98741.56
2022-09-17T22:04:33.269Z,98752.78
2022-09-17T22:07:03.324Z,98749.00
2022-09-17T22:09:33.995Z,98744.88
2022-09-17T22:12:06.550Z,98750.66
2022-09-17T22:14:36.709Z,98747.53
2022-09-17T22:17:09.403Z,98741.72
2022-09-17T22:19:42.770Z,98738.09
2022-09-17T22:22:12.954Z,98744.72
2022-09-17T22:24:44.907Z,98743.75
2022-09-17T22:27:17.908Z,98740.25
2022-09-17T22:29:49.026Z,98738.09
2022-09-17T22:32:22.841Z,98740.75
2022-09-17T22:34:53.305Z,98738.09
2022-09-17T22:37:23.396Z,98751.47
2022-09-17T22:39:53.995Z,98749.16
2022-09-17T22:42:24.174Z,98742.06
2022-09-17T22:44:54.783Z,98740.41
2022-09-17T22:47:27.529Z,98734.81
2022-09-17T22:49:57.761Z,98744.69
2022-09-17T22:52:27.854Z,98751.97
2022-09-17T22:54:58.923Z,98747.16
2022-09-17T22:57:29.070Z,98745.03
2022-09-17T22:59:59.359Z,98741.41
2022-09-17T23:02:32.136Z,98745.22
2022-09-17T23:05:02.278Z,98746.19
2022-09-17T23:07:32.431Z,98753.47
2022-09-17T23:10:02.995Z,98756.09
2022-09-17T23:12:33.358Z,98748.66
2022-09-17T23:15:03.509Z,98752.63
2022-09-17T23:17:36.593Z,98750.19
2022-09-17T23:20:07.984Z,98741.91
2022-09-17T23:22:38.272Z,98738.25
2022-09-17T23:25:08.926Z,98731.31
2022-09-17T23:27:39.174Z,98737.13
2022-09-17T23:30:10.766Z,98721.25
2022-09-17T23:32:43.566Z,98732.81
2022-09-17T23:35:13.682Z,98726.88
2022-09-17T23:37:43.942Z,98717.94
2022-09-17T23:40:14.423Z,98721.91
2022-09-17T23:42:44.533Z,98726.72
2022-09-17T23:45:15.324Z,98728.19
2022-09-17T23:47:48.049Z,98729.03
2022-09-17T23:50:18.713Z,98731.50
2022-09-17T23:52:48.865Z,98740.91
2022-09-17T23:55:19.099Z,98736.44
2022-09-17T23:57:49.191Z,98739.09
